sensor_id;sensor_type;location;lat;lon;timestamp;P1;durP1;ratioP1;P2;durP2;ratioP2
920;SDS011;447;51.332;6.778;2022-12-10T00:01:17;23.65;;;14.90;;
920;SDS011;447;51.332;6.778;2022-12-10T00:03:44;24.35;;;16.05;;
920;SDS011;447;51.332;6.778;2022-12-10T00:06:12;27.88;;;16.08;;
920;SDS011;447;51.332;6.778;2022-12-10T00:08:40;26.13;;;16.45;;
920;SDS011;447;51.332;6.778;2022-12-10T00:11:07;23.45;;;16.88;;
920;SDS011;447;51.332;6.778;2022-12-10T00:13:35;28.17;;;17.58;;
920;SDS011;447;51.332;6.778;2022-12-10T00:16:02;28.30;;;18.77;;
920;SDS011;447;51.332;6.778;2022-12-10T00:18:30;30.08;;;17.52;;
920;SDS011;447;51.332;6.778;2022-12-10T00:20:57;30.30;;;18.13;;
920;SDS011;447;51.332;6.778;2022-12-10T00:23:23;27.43;;;18.53;;
920;SDS011;447;51.332;6.778;2022-12-10T00:25:49;34.15;;;19.58;;
920;SDS011;447;51.332;6.778;2022-12-10T00:28:20;28.40;;;17.98;;
920;SDS011;447;51.332;6.778;2022-12-10T00:30:51;30.75;;;19.80;;
920;SDS011;447;51.332;6.778;2022-12-10T00:33:17;26.63;;;18.67;;
920;SDS011;447;51.332;6.778;2022-12-10T00:35:43;28.15;;;18.42;;
920;SDS011;447;51.332;6.778;2022-12-10T00:38:11;24.63;;;16.38;;
920;SDS011;447;51.332;6.778;2022-12-10T00:40:39;28.80;;;18.25;;
920;SDS011;447;51.332;6.778;2022-12-10T00:43:08;29.45;;;18.50;;
920;SDS011;447;51.332;6.778;2022-12-10T00:45:34;27.53;;;16.93;;
920;SDS011;447;51.332;6.778;2022-12-10T00:48:02;26.67;;;17.10;;
920;SDS011;447;51.332;6.778;2022-12-10T00:50:28;30.67;;;18.47;;
920;SDS011;447;51.332;6.778;2022-12-10T00:52:57;27.30;;;17.48;;
920;SDS011;447;51.332;6.778;2022-12-10T00:55:23;26.05;;;17.40;;
920;SDS011;447;51.332;6.778;2022-12-10T00:57:49;28.50;;;17.45;;
920;SDS011;447;51.332;6.778;2022-12-10T01:00:17;24.48;;;17.13;;
920;SDS011;447;51.332;6.778;2022-12-10T01:02:43;28.13;;;17.40;;
920;SDS011;447;51.332;6.778;2022-12-10T01:05:09;27.80;;;17.40;;
920;SDS011;447;51.332;6.778;2022-12-10T01:07:37;30.77;;;18.33;;
920;SDS011;447;51.332;6.778;2022-12-10T01:10:03;29.67;;;18.00;;
920;SDS011;447;51.332;6.778;2022-12-10T01:12:30;25.83;;;17.50;;
920;SDS011;447;51.332;6.778;2022-12-10T01:14:56;25.48;;;15.80;;
920;SDS011;447;51.332;6.778;2022-12-10T01:17:24;27.17;;;18.05;;
920;SDS011;447;51.332;6.778;2022-12-10T01:19:52;27.35;;;17.02;;
920;SDS011;447;51.332;6.778;2022-12-10T01:22:18;25.45;;;17.23;;
920;SDS011;447;51.332;6.778;2022-12-10T01:24:49;29.67;;;17.30;;
920;SDS011;447;51.332;6.778;2022-12-10T01:27:18;25.95;;;16.98;;
920;SDS011;447;51.332;6.778;2022-12-10T01:29:47;27.92;;;17.02;;
920;SDS011;447;51.332;6.778;2022-12-10T01:32:16;23.98;;;15.85;;
920;SDS011;447;51.332;6.778;2022-12-10T01:34:42;27.48;;;16.45;;
920;SDS011;447;51.332;6.778;2022-12-10T01:37:08;24.90;;;15.33;;
920;SDS011;447;51.332;6.778;2022-12-10T01:39:33;23.30;;;14.70;;
920;SDS011;447;51.332;6.778;2022-12-10T01:42:00;24.00;;;15.43;;
920;SDS011;447;51.332;6.778;2022-12-10T01:46:56;25.98;;;16.33;;
920;SDS011;447;51.332;6.778;2022-12-10T01:49:26;26.85;;;15.65;;
920;SDS011;447;51.332;6.778;2022-12-10T01:52:00;24.33;;;15.50;;
920;SDS011;447;51.332;6.778;2022-12-10T01:54:35;25.10;;;16.00;;
920;SDS011;447;51.332;6.778;2022-12-10T01:57:08;26.23;;;15.60;;
920;SDS011;447;51.332;6.778;2022-12-10T01:59:47;27.17;;;16.70;;
920;SDS011;447;51.332;6.778;2022-12-10T02:07:57;25.15;;;16.35;;
920;SDS011;447;51.332;6.778;2022-12-10T02:15:44;27.42;;;15.40;;
920;SDS011;447;51.332;6.778;2022-12-10T02:18:19;23.35;;;15.10;;
920;SDS011;447;51.332;6.778;2022-12-10T02:20:50;27.15;;;14.70;;
920;SDS011;447;51.332;6.778;2022-12-10T02:23:24;24.73;;;15.77;;
920;SDS011;447;51.332;6.778;2022-12-10T02:31:13;24.05;;;15.73;;
920;SDS011;447;51.332;6.778;2022-12-10T02:33:44;24.73;;;15.30;;
920;SDS011;447;51.332;6.778;2022-12-10T02:36:17;24.17;;;16.08;;
920;SDS011;447;51.332;6.778;2022-12-10T02:38:46;27.48;;;14.65;;
920;SDS011;447;51.332;6.778;2022-12-10T02:41:23;24.10;;;15.57;;
920;SDS011;447;51.332;6.778;2022-12-10T02:43:58;22.60;;;15.30;;
920;SDS011;447;51.332;6.778;2022-12-10T02:46:31;25.50;;;16.00;;
920;SDS011;447;51.332;6.778;2022-12-10T02:49:02;25.42;;;14.80;;
920;SDS011;447;51.332;6.778;2022-12-10T02:51:34;27.83;;;16.05;;
920;SDS011;447;51.332;6.778;2022-12-10T02:54:04;24.87;;;16.07;;
920;SDS011;447;51.332;6.778;2022-12-10T02:56:55;23.02;;;15.20;;
920;SDS011;447;51.332;6.778;2022-12-10T02:59:29;22.20;;;14.93;;
920;SDS011;447;51.332;6.778;2022-12-10T03:07:40;23.08;;;14.80;;
920;SDS011;447;51.332;6.778;2022-12-10T03:10:27;25.40;;;15.23;;
920;SDS011;447;51.332;6.778;2022-12-10T03:13:02;24.70;;;14.77;;
920;SDS011;447;51.332;6.778;2022-12-10T03:15:33;23.02;;;14.48;;
920;SDS011;447;51.332;6.778;2022-12-10T03:18:04;22.85;;;15.65;;
920;SDS011;447;51.332;6.778;2022-12-10T03:20:32;24.73;;;15.70;;
920;SDS011;447;51.332;6.778;2022-12-10T03:23:04;21.40;;;13.88;;
920;SDS011;447;51.332;6.778;2022-12-10T03:25:34;25.15;;;16.15;;
920;SDS011;447;51.332;6.778;2022-12-10T03:28:01;22.92;;;15.32;;
920;SDS011;447;51.332;6.778;2022-12-10T03:30:28;23.75;;;14.50;;
920;SDS011;447;51.332;6.778;2022-12-10T03:32:59;27.73;;;16.33;;
920;SDS011;447;51.332;6.778;2022-12-10T03:35:26;26.33;;;16.73;;
920;SDS011;447;51.332;6.778;2022-12-10T03:37:52;21.92;;;14.60;;
920;SDS011;447;51.332;6.778;2022-12-10T03:40:22;22.95;;;14.90;;
920;SDS011;447;51.332;6.778;2022-12-10T03:42:52;23.75;;;15.82;;
920;SDS011;447;51.332;6.778;2022-12-10T03:45:18;23.55;;;14.57;;
920;SDS011;447;51.332;6.778;2022-12-10T03:47:47;24.50;;;15.43;;
920;SDS011;447;51.332;6.778;2022-12-10T03:50:16;22.90;;;14.75;;
920;SDS011;447;51.332;6.778;2022-12-10T03:52:45;25.60;;;15.32;;
920;SDS011;447;51.332;6.778;2022-12-10T03:55:14;25.58;;;15.57;;
920;SDS011;447;51.332;6.778;2022-12-10T03:57:40;22.13;;;15.35;;
920;SDS011;447;51.332;6.778;2022-12-10T04:00:06;27.00;;;16.33;;
920;SDS011;447;51.332;6.778;2022-12-10T04:02:37;24.38;;;15.23;;
920;SDS011;447;51.332;6.778;2022-12-10T04:05:04;24.58;;;15.98;;
920;SDS011;447;51.332;6.778;2022-12-10T04:07:32;24.80;;;14.82;;
920;SDS011;447;51.332;6.778;2022-12-10T04:09:58;23.65;;;15.60;;
920;SDS011;447;51.332;6.778;2022-12-10T04:12:23;21.83;;;14.63;;
920;SDS011;447;51.332;6.778;2022-12-10T04:14:50;26.05;;;15.32;;
920;SDS011;447;51.332;6.778;2022-12-10T04:17:37;23.25;;;14.55;;
920;SDS011;447;51.332;6.778;2022-12-10T04:20:03;21.70;;;14.10;;
920;SDS011;447;51.332;6.778;2022-12-10T04:22:52;20.10;;;13.82;;
920;SDS011;447;51.332;6.778;2022-12-10T04:25:38;22.65;;;14.52;;
920;SDS011;447;51.332;6.778;2022-12-10T04:28:28;19.65;;;13.88;;
920;SDS011;447;51.332;6.778;2022-12-10T04:30:54;24.52;;;14.32;;
920;SDS011;447;51.332;6.778;2022-12-10T04:33:23;19.65;;;14.45;;
920;SDS011;447;51.332;6.778;2022-12-10T04:35:51;24.35;;;13.85;;
920;SDS011;447;51.332;6.778;2022-12-10T04:38:20;25.90;;;16.30;;
920;SDS011;447;51.332;6.778;2022-12-10T04:40:48;22.55;;;14.65;;
920;SDS011;447;51.332;6.778;2022-12-10T04:43:14;26.15;;;16.63;;
920;SDS011;447;51.332;6.778;2022-12-10T04:45:41;24.65;;;15.77;;
920;SDS011;447;51.332;6.778;2022-12-10T04:48:06;25.13;;;14.57;;
920;SDS011;447;51.332;6.778;2022-12-10T04:50:34;22.58;;;14.48;;
920;SDS011;447;51.332;6.778;2022-12-10T04:53:00;21.73;;;14.48;;
920;SDS011;447;51.332;6.778;2022-12-10T04:55:26;20.97;;;13.27;;
920;SDS011;447;51.332;6.778;2022-12-10T04:57:52;23.75;;;15.07;;
920;SDS011;447;51.332;6.778;2022-12-10T05:00:21;23.15;;;14.52;;
920;SDS011;447;51.332;6.778;2022-12-10T05:02:50;26.00;;;14.68;;
920;SDS011;447;51.332;6.778;2022-12-10T05:05:16;23.27;;;15.35;;
920;SDS011;447;51.332;6.778;2022-12-10T05:07:44;22.48;;;14.60;;
920;SDS011;447;51.332;6.778;2022-12-10T05:10:12;26.77;;;15.60;;
920;SDS011;447;51.332;6.778;2022-12-10T05:12:41;25.40;;;14.38;;
920;SDS011;447;51.332;6.778;2022-12-10T05:15:07;21.30;;;13.77;;
920;SDS011;447;51.332;6.778;2022-12-10T05:17:36;23.17;;;15.50;;
920;SDS011;447;51.332;6.778;2022-12-10T05:20:02;24.57;;;14.90;;
920;SDS011;447;51.332;6.778;2022-12-10T05:22:30;21.65;;;14.65;;
920;SDS011;447;51.332;6.778;2022-12-10T05:25:15;22.70;;;14.88;;
920;SDS011;447;51.332;6.778;2022-12-10T05:27:41;24.47;;;15.90;;
920;SDS011;447;51.332;6.778;2022-12-10T05:30:10;23.10;;;14.02;;
920;SDS011;447;51.332;6.778;2022-12-10T05:32:36;21.73;;;14.95;;
920;SDS011;447;51.332;6.778;2022-12-10T05:35:07;24.15;;;14.15;;
920;SDS011;447;51.332;6.778;2022-12-10T05:37:38;23.65;;;15.13;;
920;SDS011;447;51.332;6.778;2022-12-10T05:40:04;24.65;;;14.90;;
920;SDS011;447;51.332;6.778;2022-12-10T05:42:31;22.75;;;14.25;;
920;SDS011;447;51.332;6.778;2022-12-10T05:44:57;23.75;;;15.20;;
920;SDS011;447;51.332;6.778;2022-12-10T05:47:26;21.42;;;14.00;;
920;SDS011;447;51.332;6.778;2022-12-10T05:53:20;22.33;;;13.85;;
920;SDS011;447;51.332;6.778;2022-12-10T05:55:46;21.07;;;14.30;;
920;SDS011;447;51.332;6.778;2022-12-10T05:58:12;21.15;;;14.05;;
920;SDS011;447;51.332;6.778;2022-12-10T06:00:41;24.15;;;15.68;;
920;SDS011;447;51.332;6.778;2022-12-10T06:03:07;23.55;;;14.50;;
920;SDS011;447;51.332;6.778;2022-12-10T06:05:36;25.27;;;16.23;;
920;SDS011;447;51.332;6.778;2022-12-10T06:08:05;25.23;;;15.68;;
920;SDS011;447;51.332;6.778;2022-12-10T06:10:35;28.50;;;16.48;;
920;SDS011;447;51.332;6.778;2022-12-10T06:13:04;24.05;;;15.45;;
920;SDS011;447;51.332;6.778;2022-12-10T06:15:31;25.45;;;15.68;;
920;SDS011;447;51.332;6.778;2022-12-10T06:17:58;27.45;;;16.33;;
920;SDS011;447;51.332;6.778;2022-12-10T06:20:27;27.27;;;16.23;;
920;SDS011;447;51.332;6.778;2022-12-10T06:22:55;25.48;;;16.00;;
920;SDS011;447;51.332;6.778;2022-12-10T06:25:21;24.20;;;14.83;;
920;SDS011;447;51.332;6.778;2022-12-10T06:27:47;24.85;;;16.00;;
920;SDS011;447;51.332;6.778;2022-12-10T06:30:13;26.17;;;15.80;;
920;SDS011;447;51.332;6.778;2022-12-10T06:32:42;25.45;;;16.40;;
920;SDS011;447;51.332;6.778;2022-12-10T06:35:08;26.90;;;16.30;;
920;SDS011;447;51.332;6.778;2022-12-10T06:37:35;27.33;;;16.67;;
920;SDS011;447;51.332;6.778;2022-12-10T06:40:04;26.30;;;15.43;;
920;SDS011;447;51.332;6.778;2022-12-10T06:42:31;28.67;;;15.63;;
920;SDS011;447;51.332;6.778;2022-12-10T06:45:02;29.20;;;17.33;;
920;SDS011;447;51.332;6.778;2022-12-10T06:47:31;32.58;;;17.38;;
920;SDS011;447;51.332;6.778;2022-12-10T06:49:57;28.52;;;16.55;;
920;SDS011;447;51.332;6.778;2022-12-10T06:52:25;31.85;;;18.55;;
920;SDS011;447;51.332;6.778;2022-12-10T06:54:54;33.03;;;17.70;;
920;SDS011;447;51.332;6.778;2022-12-10T06:57:20;32.08;;;16.67;;
920;SDS011;447;51.332;6.778;2022-12-10T06:59:46;29.73;;;19.15;;
920;SDS011;447;51.332;6.778;2022-12-10T07:02:19;31.05;;;18.33;;
920;SDS011;447;51.332;6.778;2022-12-10T07:04:45;30.53;;;17.27;;
920;SDS011;447;51.332;6.778;2022-12-10T07:07:11;29.02;;;17.27;;
920;SDS011;447;51.332;6.778;2022-12-10T07:09:39;28.65;;;16.98;;
920;SDS011;447;51.332;6.778;2022-12-10T07:12:05;30.17;;;17.67;;
920;SDS011;447;51.332;6.778;2022-12-10T07:14:36;30.77;;;17.67;;
920;SDS011;447;51.332;6.778;2022-12-10T07:17:05;30.90;;;18.50;;
920;SDS011;447;51.332;6.778;2022-12-10T07:19:33;32.33;;;19.02;;
920;SDS011;447;51.332;6.778;2022-12-10T07:22:01;35.75;;;20.30;;
920;SDS011;447;51.332;6.778;2022-12-10T07:24:27;30.25;;;18.20;;
920;SDS011;447;51.332;6.778;2022-12-10T07:26:53;35.63;;;18.70;;
920;SDS011;447;51.332;6.778;2022-12-10T07:29:24;31.15;;;18.20;;
920;SDS011;447;51.332;6.778;2022-12-10T07:31:53;33.85;;;18.85;;
920;SDS011;447;51.332;6.778;2022-12-10T07:34:20;34.47;;;19.20;;
920;SDS011;447;51.332;6.778;2022-12-10T07:36:46;32.90;;;18.50;;
920;SDS011;447;51.332;6.778;2022-12-10T07:39:15;32.40;;;19.85;;
920;SDS011;447;51.332;6.778;2022-12-10T07:41:56;34.22;;;19.83;;
920;SDS011;447;51.332;6.778;2022-12-10T07:44:27;35.40;;;20.10;;
920;SDS011;447;51.332;6.778;2022-12-10T07:46:54;33.70;;;19.67;;
920;SDS011;447;51.332;6.778;2022-12-10T07:49:23;37.58;;;20.05;;
920;SDS011;447;51.332;6.778;2022-12-10T07:51:49;37.03;;;19.60;;
920;SDS011;447;51.332;6.778;2022-12-10T07:54:18;32.78;;;18.58;;
920;SDS011;447;51.332;6.778;2022-12-10T07:56:45;39.63;;;20.77;;
920;SDS011;447;51.332;6.778;2022-12-10T07:59:11;39.00;;;19.90;;
920;SDS011;447;51.332;6.778;2022-12-10T08:01:37;35.47;;;19.95;;
920;SDS011;447;51.332;6.778;2022-12-10T08:04:06;36.53;;;21.13;;
920;SDS011;447;51.332;6.778;2022-12-10T08:06:32;40.63;;;21.53;;
920;SDS011;447;51.332;6.778;2022-12-10T08:09:00;44.47;;;21.40;;
920;SDS011;447;51.332;6.778;2022-12-10T08:11:26;40.47;;;20.60;;
920;SDS011;447;51.332;6.778;2022-12-10T08:13:56;39.50;;;20.65;;
920;SDS011;447;51.332;6.778;2022-12-10T08:16:22;34.88;;;19.60;;
920;SDS011;447;51.332;6.778;2022-12-10T08:18:53;39.78;;;21.33;;
920;SDS011;447;51.332;6.778;2022-12-10T08:21:25;31.75;;;19.98;;
920;SDS011;447;51.332;6.778;2022-12-10T08:23:55;40.63;;;21.00;;
920;SDS011;447;51.332;6.778;2022-12-10T08:26:22;33.90;;;20.13;;
920;SDS011;447;51.332;6.778;2022-12-10T08:28:55;39.45;;;21.60;;
920;SDS011;447;51.332;6.778;2022-12-10T08:31:22;37.60;;;20.70;;
920;SDS011;447;51.332;6.778;2022-12-10T08:33:49;37.05;;;20.75;;
920;SDS011;447;51.332;6.778;2022-12-10T08:36:16;33.60;;;18.60;;
920;SDS011;447;51.332;6.778;2022-12-10T08:38:44;38.75;;;19.85;;
920;SDS011;447;51.332;6.778;2022-12-10T08:41:12;39.10;;;22.77;;
920;SDS011;447;51.332;6.778;2022-12-10T08:43:45;35.35;;;19.05;;
920;SDS011;447;51.332;6.778;2022-12-10T08:46:15;38.78;;;20.05;;
920;SDS011;447;51.332;6.778;2022-12-10T08:48:41;34.58;;;20.35;;
920;SDS011;447;51.332;6.778;2022-12-10T08:51:08;36.45;;;19.83;;
920;SDS011;447;51.332;6.778;2022-12-10T08:53:36;35.28;;;19.17;;
920;SDS011;447;51.332;6.778;2022-12-10T08:56:02;42.00;;;21.98;;
920;SDS011;447;51.332;6.778;2022-12-10T08:58:33;37.15;;;19.85;;
920;SDS011;447;51.332;6.778;2022-12-10T09:01:13;32.03;;;19.35;;
920;SDS011;447;51.332;6.778;2022-12-10T09:03:41;37.30;;;20.55;;
920;SDS011;447;51.332;6.778;2022-12-10T09:06:11;39.78;;;20.58;;
920;SDS011;447;51.332;6.778;2022-12-10T09:08:44;33.88;;;19.88;;
920;SDS011;447;51.332;6.778;2022-12-10T09:11:18;38.63;;;18.35;;
920;SDS011;447;51.332;6.778;2022-12-10T09:13:49;35.78;;;20.27;;
920;SDS011;447;51.332;6.778;2022-12-10T09:16:15;34.72;;;19.00;;
920;SDS011;447;51.332;6.778;2022-12-10T09:18:42;41.55;;;21.10;;
920;SDS011;447;51.332;6.778;2022-12-10T09:21:09;37.75;;;20.58;;
920;SDS011;447;51.332;6.778;2022-12-10T09:23:37;36.85;;;19.27;;
920;SDS011;447;51.332;6.778;2022-12-10T09:26:08;35.63;;;19.70;;
920;SDS011;447;51.332;6.778;2022-12-10T09:28:35;37.40;;;20.33;;
920;SDS011;447;51.332;6.778;2022-12-10T09:31:07;37.78;;;20.08;;
920;SDS011;447;51.332;6.778;2022-12-10T09:33:39;33.53;;;20.15;;
920;SDS011;447;51.332;6.778;2022-12-10T09:36:06;34.92;;;18.77;;
920;SDS011;447;51.332;6.778;2022-12-10T09:38:37;34.38;;;18.27;;
920;SDS011;447;51.332;6.778;2022-12-10T09:41:10;33.05;;;19.65;;
920;SDS011;447;51.332;6.778;2022-12-10T09:44:10;37.95;;;19.52;;
920;SDS011;447;51.332;6.778;2022-12-10T09:52:27;32.88;;;18.90;;
920;SDS011;447;51.332;6.778;2022-12-10T09:55:00;35.70;;;19.38;;
920;SDS011;447;51.332;6.778;2022-12-10T09:57:37;33.92;;;19.10;;
920;SDS011;447;51.332;6.778;2022-12-10T10:02:57;32.00;;;18.33;;
920;SDS011;447;51.332;6.778;2022-12-10T10:08:00;39.97;;;20.85;;
920;SDS011;447;51.332;6.778;2022-12-10T10:10:36;40.70;;;21.25;;
920;SDS011;447;51.332;6.778;2022-12-10T10:15:37;31.88;;;18.25;;
920;SDS011;447;51.332;6.778;2022-12-10T10:20:49;39.13;;;19.08;;
920;SDS011;447;51.332;6.778;2022-12-10T10:23:16;31.10;;;17.33;;
920;SDS011;447;51.332;6.778;2022-12-10T10:25:42;35.03;;;19.42;;
920;SDS011;447;51.332;6.778;2022-12-10T10:28:13;32.70;;;18.98;;
920;SDS011;447;51.332;6.778;2022-12-10T10:30:47;32.60;;;17.88;;
920;SDS011;447;51.332;6.778;2022-12-10T10:33:14;37.05;;;18.90;;
920;SDS011;447;51.332;6.778;2022-12-10T10:35:52;32.42;;;18.23;;
920;SDS011;447;51.332;6.778;2022-12-10T10:38:29;29.17;;;17.02;;
920;SDS011;447;51.332;6.778;2022-12-10T10:40:57;31.23;;;18.77;;
920;SDS011;447;51.332;6.778;2022-12-10T10:43:26;33.15;;;18.40;;
920;SDS011;447;51.332;6.778;2022-12-10T10:46:11;33.78;;;18.40;;
920;SDS011;447;51.332;6.778;2022-12-10T10:48:39;37.05;;;20.42;;
920;SDS011;447;51.332;6.778;2022-12-10T11:04:15;30.60;;;18.08;;
920;SDS011;447;51.332;6.778;2022-12-10T11:06:43;30.45;;;16.90;;
920;SDS011;447;51.332;6.778;2022-12-10T11:09:31;30.33;;;17.90;;
920;SDS011;447;51.332;6.778;2022-12-10T11:11:59;32.92;;;16.30;;
920;SDS011;447;51.332;6.778;2022-12-10T11:14:30;28.30;;;16.80;;
920;SDS011;447;51.332;6.778;2022-12-10T11:19:43;28.92;;;16.92;;
920;SDS011;447;51.332;6.778;2022-12-10T11:22:22;27.85;;;16.10;;
920;SDS011;447;51.332;6.778;2022-12-10T11:24:56;29.48;;;16.95;;
920;SDS011;447;51.332;6.778;2022-12-10T11:36:09;23.60;;;15.65;;
920;SDS011;447;51.332;6.778;2022-12-10T11:38:49;24.30;;;15.23;;
920;SDS011;447;51.332;6.778;2022-12-10T11:44:14;27.30;;;15.77;;
920;SDS011;447;51.332;6.778;2022-12-10T11:49:38;28.48;;;15.63;;
920;SDS011;447;51.332;6.778;2022-12-10T12:00:39;26.40;;;15.00;;
920;SDS011;447;51.332;6.778;2022-12-10T12:06:10;24.80;;;14.13;;
920;SDS011;447;51.332;6.778;2022-12-10T12:09:20;24.50;;;14.82;;
920;SDS011;447;51.332;6.778;2022-12-10T12:14:45;24.70;;;16.50;;
920;SDS011;447;51.332;6.778;2022-12-10T12:17:36;25.23;;;14.95;;
920;SDS011;447;51.332;6.778;2022-12-10T12:22:58;25.55;;;14.13;;
920;SDS011;447;51.332;6.778;2022-12-10T12:25:28;28.92;;;15.98;;
920;SDS011;447;51.332;6.778;2022-12-10T12:28:05;21.60;;;13.65;;
920;SDS011;447;51.332;6.778;2022-12-10T12:30:39;23.58;;;14.05;;
920;SDS011;447;51.332;6.778;2022-12-10T12:33:13;25.10;;;14.57;;
920;SDS011;447;51.332;6.778;2022-12-10T12:35:50;22.55;;;14.15;;
920;SDS011;447;51.332;6.778;2022-12-10T12:38:27;27.55;;;15.20;;
920;SDS011;447;51.332;6.778;2022-12-10T12:41:05;23.67;;;14.20;;
920;SDS011;447;51.332;6.778;2022-12-10T12:43:47;26.80;;;16.02;;
920;SDS011;447;51.332;6.778;2022-12-10T12:46:26;24.08;;;13.65;;
920;SDS011;447;51.332;6.778;2022-12-10T12:49:43;24.70;;;15.13;;
920;SDS011;447;51.332;6.778;2022-12-10T12:51:57;23.98;;;14.18;;
920;SDS011;447;51.332;6.778;2022-12-10T12:54:29;24.10;;;14.75;;
920;SDS011;447;51.332;6.778;2022-12-10T12:57:07;24.83;;;14.88;;
920;SDS011;447;51.332;6.778;2022-12-10T13:05:45;29.52;;;14.95;;
920;SDS011;447;51.332;6.778;2022-12-10T13:08:20;22.38;;;13.60;;
920;SDS011;447;51.332;6.778;2022-12-10T13:24:21;21.42;;;14.15;;
920;SDS011;447;51.332;6.778;2022-12-10T13:32:41;26.23;;;16.15;;
920;SDS011;447;51.332;6.778;2022-12-10T13:35:18;26.20;;;13.55;;
920;SDS011;447;51.332;6.778;2022-12-10T13:38:02;22.60;;;13.63;;
920;SDS011;447;51.332;6.778;2022-12-10T13:43:58;23.92;;;13.50;;
920;SDS011;447;51.332;6.778;2022-12-10T13:46:34;22.60;;;13.90;;
920;SDS011;447;51.332;6.778;2022-12-10T13:49:17;24.55;;;14.70;;
920;SDS011;447;51.332;6.778;2022-12-10T13:51:57;24.58;;;14.45;;
920;SDS011;447;51.332;6.778;2022-12-10T13:54:42;22.77;;;13.35;;
920;SDS011;447;51.332;6.778;2022-12-10T14:06:26;24.15;;;14.73;;
920;SDS011;447;51.332;6.778;2022-12-10T14:09:09;25.45;;;15.15;;
920;SDS011;447;51.332;6.778;2022-12-10T14:11:40;26.70;;;15.98;;
920;SDS011;447;51.332;6.778;2022-12-10T14:14:16;27.90;;;16.73;;
920;SDS011;447;51.332;6.778;2022-12-10T14:17:13;27.50;;;15.40;;
920;SDS011;447;51.332;6.778;2022-12-10T14:19:43;27.40;;;15.80;;
920;SDS011;447;51.332;6.778;2022-12-10T14:22:54;25.80;;;15.95;;
920;SDS011;447;51.332;6.778;2022-12-10T14:25:11;25.80;;;16.42;;
920;SDS011;447;51.332;6.778;2022-12-10T14:27:39;26.00;;;16.73;;
920;SDS011;447;51.332;6.778;2022-12-10T14:32:41;31.73;;;18.42;;
920;SDS011;447;51.332;6.778;2022-12-10T14:35:12;29.42;;;16.30;;
920;SDS011;447;51.332;6.778;2022-12-10T14:37:49;29.23;;;18.65;;
920;SDS011;447;51.332;6.778;2022-12-10T14:42:55;25.73;;;15.80;;
920;SDS011;447;51.332;6.778;2022-12-10T14:45:31;27.08;;;15.90;;
920;SDS011;447;51.332;6.778;2022-12-10T14:48:14;27.45;;;16.80;;
920;SDS011;447;51.332;6.778;2022-12-10T14:50:42;26.42;;;16.30;;
920;SDS011;447;51.332;6.778;2022-12-10T14:53:20;29.60;;;16.65;;
920;SDS011;447;51.332;6.778;2022-12-10T14:55:50;25.67;;;15.48;;
920;SDS011;447;51.332;6.778;2022-12-10T14:58:45;28.95;;;18.13;;
920;SDS011;447;51.332;6.778;2022-12-10T15:04:14;25.50;;;14.68;;
920;SDS011;447;51.332;6.778;2022-12-10T15:06:44;30.60;;;16.63;;
920;SDS011;447;51.332;6.778;2022-12-10T15:09:21;27.05;;;16.08;;
920;SDS011;447;51.332;6.778;2022-12-10T15:11:55;25.27;;;15.43;;
920;SDS011;447;51.332;6.778;2022-12-10T15:14:27;26.67;;;15.45;;
920;SDS011;447;51.332;6.778;2022-12-10T15:16:55;27.73;;;16.45;;
920;SDS011;447;51.332;6.778;2022-12-10T15:21:58;26.23;;;16.43;;
920;SDS011;447;51.332;6.778;2022-12-10T15:24:37;30.08;;;17.02;;
920;SDS011;447;51.332;6.778;2022-12-10T15:27:19;30.42;;;16.60;;
920;SDS011;447;51.332;6.778;2022-12-10T15:29:47;28.95;;;15.35;;
920;SDS011;447;51.332;6.778;2022-12-10T15:32:26;29.42;;;16.35;;
920;SDS011;447;51.332;6.778;2022-12-10T15:34:58;28.20;;;16.23;;
920;SDS011;447;51.332;6.778;2022-12-10T15:37:34;28.55;;;16.15;;
920;SDS011;447;51.332;6.778;2022-12-10T15:40:20;29.55;;;16.77;;
920;SDS011;447;51.332;6.778;2022-12-10T15:43:10;29.90;;;16.48;;
920;SDS011;447;51.332;6.778;2022-12-10T15:45:51;28.15;;;15.75;;
920;SDS011;447;51.332;6.778;2022-12-10T15:48:19;31.73;;;17.97;;
920;SDS011;447;51.332;6.778;2022-12-10T15:50:46;26.85;;;16.35;;
920;SDS011;447;51.332;6.778;2022-12-10T15:53:16;31.60;;;17.98;;
920;SDS011;447;51.332;6.778;2022-12-10T15:55:54;31.05;;;16.02;;
920;SDS011;447;51.332;6.778;2022-12-10T15:58:32;31.17;;;15.70;;
920;SDS011;447;51.332;6.778;2022-12-10T16:00:59;26.77;;;15.93;;
920;SDS011;447;51.332;6.778;2022-12-10T16:03:26;29.95;;;15.18;;
920;SDS011;447;51.332;6.778;2022-12-10T16:05:53;29.58;;;16.63;;
920;SDS011;447;51.332;6.778;2022-12-10T16:10:54;28.02;;;15.88;;
920;SDS011;447;51.332;6.778;2022-12-10T16:13:23;30.95;;;15.70;;
920;SDS011;447;51.332;6.778;2022-12-10T16:15:59;32.50;;;17.50;;
920;SDS011;447;51.332;6.778;2022-12-10T16:18:32;27.27;;;16.55;;
920;SDS011;447;51.332;6.778;2022-12-10T16:21:05;32.58;;;17.80;;
920;SDS011;447;51.332;6.778;2022-12-10T16:23:35;28.80;;;14.85;;
920;SDS011;447;51.332;6.778;2022-12-10T16:26:12;29.73;;;16.35;;
920;SDS011;447;51.332;6.778;2022-12-10T16:28:43;28.60;;;15.93;;
920;SDS011;447;51.332;6.778;2022-12-10T16:31:17;28.38;;;15.32;;
920;SDS011;447;51.332;6.778;2022-12-10T16:33:49;30.05;;;15.63;;
920;SDS011;447;51.332;6.778;2022-12-10T16:36:17;31.35;;;15.63;;
920;SDS011;447;51.332;6.778;2022-12-10T16:38:43;24.50;;;15.60;;
920;SDS011;447;51.332;6.778;2022-12-10T16:41:13;29.80;;;15.90;;
920;SDS011;447;51.332;6.778;2022-12-10T16:43:41;26.90;;;14.85;;
920;SDS011;447;51.332;6.778;2022-12-10T16:46:09;28.77;;;16.20;;
920;SDS011;447;51.332;6.778;2022-12-10T16:48:42;29.30;;;15.40;;
920;SDS011;447;51.332;6.778;2022-12-10T16:51:13;27.20;;;14.65;;
920;SDS011;447;51.332;6.778;2022-12-10T16:53:51;24.52;;;14.70;;
920;SDS011;447;51.332;6.778;2022-12-10T16:56:17;25.17;;;14.43;;
920;SDS011;447;51.332;6.778;2022-12-10T16:58:48;29.15;;;13.88;;
920;SDS011;447;51.332;6.778;2022-12-10T17:03:45;28.45;;;15.18;;
920;SDS011;447;51.332;6.778;2022-12-10T17:06:12;28.45;;;14.65;;
920;SDS011;447;51.332;6.778;2022-12-10T17:08:40;27.92;;;14.48;;
920;SDS011;447;51.332;6.778;2022-12-10T17:11:19;27.20;;;16.05;;
920;SDS011;447;51.332;6.778;2022-12-10T17:14:24;26.83;;;14.85;;
920;SDS011;447;51.332;6.778;2022-12-10T17:16:53;24.52;;;14.73;;
920;SDS011;447;51.332;6.778;2022-12-10T17:19:30;26.33;;;16.20;;
920;SDS011;447;51.332;6.778;2022-12-10T17:22:00;24.05;;;14.25;;
920;SDS011;447;51.332;6.778;2022-12-10T17:24:27;27.05;;;15.52;;
920;SDS011;447;51.332;6.778;2022-12-10T17:26:57;30.40;;;15.50;;
920;SDS011;447;51.332;6.778;2022-12-10T17:29:35;30.40;;;15.98;;
920;SDS011;447;51.332;6.778;2022-12-10T17:32:04;28.48;;;15.48;;
920;SDS011;447;51.332;6.778;2022-12-10T17:34:37;25.83;;;14.55;;
920;SDS011;447;51.332;6.778;2022-12-10T17:37:12;27.40;;;15.27;;
920;SDS011;447;51.332;6.778;2022-12-10T17:39:46;29.60;;;14.63;;
920;SDS011;447;51.332;6.778;2022-12-10T17:42:12;25.80;;;14.60;;
920;SDS011;447;51.332;6.778;2022-12-10T17:44:38;29.47;;;15.73;;
920;SDS011;447;51.332;6.778;2022-12-10T17:47:24;24.70;;;14.93;;
920;SDS011;447;51.332;6.778;2022-12-10T17:49:53;29.10;;;15.75;;
920;SDS011;447;51.332;6.778;2022-12-10T17:52:21;27.55;;;15.38;;
920;SDS011;447;51.332;6.778;2022-12-10T17:54:50;26.38;;;14.45;;
920;SDS011;447;51.332;6.778;2022-12-10T17:57:22;28.50;;;15.40;;
920;SDS011;447;51.332;6.778;2022-12-10T17:59:52;28.33;;;15.30;;
920;SDS011;447;51.332;6.778;2022-12-10T18:02:18;27.80;;;14.05;;
920;SDS011;447;51.332;6.778;2022-12-10T18:04:48;25.97;;;14.07;;